createdAt,value
2022-09-26T00:05:03.296Z,8.35
2022-09-26T00:10:26.028Z,8.30
2022-09-26T00:15:48.298Z,8.19
2022-09-26T00:21:21.333Z,8.15
2022-09-26T00:26:46.068Z,8.13
2022-09-26T00:32:08.241Z,8.11
2022-09-26T00:37:30.488Z,8.06
2022-09-26T00:42:52.655Z,8.10
2022-09-26T00:48:19.471Z,8.08
2022-09-26T00:53:46.435Z,8.09
2022-09-26T00:59:13.628Z,7.99
2022-09-26T01:04:38.968Z,7.89
2022-09-26T01:10:02.457Z,7.83
2022-09-26T01:15:26.560Z,7.72
2022-09-26T01:21:43.754Z,7.74
2022-09-26T01:27:16.624Z,7.79
2022-09-26T01:33:04.215Z,7.85
2022-09-26T01:39:10.277Z,7.77
2022-09-26T01:44:55.998Z,7.84
2022-09-26T01:50:26.240Z,7.87
2022-09-26T01:56:15.496Z,8.00
2022-09-26T02:01:42.296Z,7.92
2022-09-26T02:07:10.253Z,7.97
2022-09-26T02:12:40.270Z,8.01
2022-09-26T02:18:10.120Z,8.04
2022-09-26T02:23:32.291Z,8.06
2022-09-26T02:28:55.190Z,8.04
2022-09-26T02:34:18.442Z,8.00
2022-09-26T02:39:40.651Z,7.98
2022-09-26T02:45:26.206Z,7.97
2022-09-26T02:51:29.332Z,7.98
2022-09-26T02:57:31.608Z,7.97
2022-09-26T03:03:27.069Z,7.92
2022-09-26T03:08:53.431Z,7.84
2022-09-26T03:14:17.276Z,7.82
2022-09-26T03:19:59.424Z,7.77
2022-09-26T03:25:28.212Z,7.64
2022-09-26T03:30:50.893Z,7.51
2022-09-26T03:36:15.177Z,7.46
2022-09-26T03:41:37.323Z,7.41
2022-09-26T03:46:59.473Z,7.32
2022-09-26T03:52:25.096Z,7.34
2022-09-26T03:57:47.248Z,7.38
2022-09-26T04:03:10.996Z,7.44
2022-09-26T04:08:33.630Z,7.60
2022-09-26T04:13:57.114Z,7.67
2022-09-26T04:19:20.018Z,7.73
2022-09-26T04:24:42.171Z,7.75
2022-09-26T04:30:04.397Z,7.83
2022-09-26T04:35:27.589Z,7.83
2022-09-26T04:40:49.965Z,7.83
2022-09-26T04:46:20.865Z,7.75
2022-09-26T04:51:42.669Z,7.69
2022-09-26T04:57:07.099Z,7.63
2022-09-26T05:02:30.510Z,7.54
2022-09-26T05:07:54.539Z,7.55
2022-09-26T05:13:19.981Z,7.53
2022-09-26T05:18:44.356Z,7.55
2022-09-26T05:24:24.448Z,7.61
2022-09-26T05:29:46.597Z,7.72
2022-09-26T05:35:08.733Z,7.87
2022-09-26T05:40:49.362Z,7.93
2022-09-26T05:46:17.599Z,7.97
2022-09-26T05:51:41.641Z,8.11
2022-09-26T05:57:03.780Z,8.21
2022-09-26T06:02:25.964Z,8.35
2022-09-26T06:07:48.498Z,8.43
2022-09-26T06:13:13.932Z,8.59
2022-09-26T06:18:36.243Z,8.70
2022-09-26T06:23:58.728Z,8.90
2022-09-26T06:29:22.433Z,9.06
2022-09-26T06:34:44.698Z,9.14
2022-09-26T06:40:08.712Z,9.25
2022-09-26T06:45:30.959Z,9.48
2022-09-26T06:50:56.218Z,9.56
2022-09-26T06:56:18.822Z,9.77
2022-09-26T07:01:41.867Z,9.77
2022-09-26T07:07:05.883Z,9.89
2022-09-26T07:12:28.674Z,10.19
2022-09-26T07:17:51.487Z,10.50
2022-09-26T07:23:16.433Z,10.82
2022-09-26T07:28:39.535Z,11.15
2022-09-26T07:34:03.400Z,11.35
2022-09-26T07:39:26.748Z,11.57
2022-09-26T07:50:15.905Z,12.09
2022-09-26T07:55:41.810Z,12.47
2022-09-26T08:01:04.315Z,12.64
2022-09-26T08:06:27.887Z,12.74
2022-09-26T08:11:50.654Z,12.98
2022-09-26T08:17:16.380Z,13.01
2022-09-26T08:22:38.660Z,13.36
2022-09-26T08:28:00.783Z,13.75
2022-09-26T08:33:25.871Z,14.04
2022-09-26T08:38:49.566Z,13.89
2022-09-26T08:44:35.828Z,13.78
2022-09-26T08:50:22.715Z,13.73
2022-09-26T08:55:53.590Z,13.69
2022-09-26T09:01:23.481Z,13.78
2022-09-26T09:06:47.979Z,13.85
2022-09-26T09:12:15.628Z,13.83
2022-09-26T09:18:01.383Z,14.06
2022-09-26T09:23:41.035Z,13.90
2022-09-26T09:29:28.726Z,14.23
2022-09-26T09:34:54.528Z,14.64
2022-09-26T09:40:20.541Z,14.75
2022-09-26T09:45:53.599Z,15.00
2022-09-26T09:51:27.800Z,15.50
2022-09-26T09:57:23.881Z,15.72
2022-09-26T10:03:12.241Z,15.89
2022-09-26T10:08:44.585Z,16.33
2022-09-26T10:14:12.541Z,16.67
2022-09-26T10:19:46.015Z,16.72
2022-09-26T10:25:15.187Z,16.48
2022-09-26T10:30:42.184Z,15.53
2022-09-26T10:36:09.232Z,15.64
2022-09-26T10:41:38.199Z,16.80
2022-09-26T10:47:08.812Z,16.64
2022-09-26T10:52:38.084Z,16.88
2022-09-26T10:58:14.204Z,17.16
2022-09-26T11:03:48.443Z,17.48
2022-09-26T11:09:16.837Z,18.40
2022-09-26T11:14:44.041Z,18.10
2022-09-26T11:20:11.191Z,19.17
2022-09-26T11:25:53.351Z,17.31
2022-09-26T11:31:19.964Z,16.41
2022-09-26T11:36:53.654Z,16.15
2022-09-26T11:42:53.360Z,16.40
2022-09-26T11:48:54.518Z,16.56
2022-09-26T11:54:31.200Z,17.64
2022-09-26T12:00:12.508Z,17.05
2022-09-26T12:06:01.593Z,16.45
2022-09-26T12:11:45.918Z,17.01
2022-09-26T12:17:26.189Z,17.57
2022-09-26T12:22:45.896Z,18.83
2022-09-26T12:28:46.373Z,19.14
2022-09-26T12:34:31.221Z,19.00
2022-09-26T12:40:32.424Z,19.17
2022-09-26T12:46:12.879Z,18.87
2022-09-26T12:51:56.349Z,18.93
2022-09-26T12:57:40.898Z,18.95
2022-09-26T13:03:22.132Z,19.67
2022-09-26T13:09:10.991Z,19.66
2022-09-26T13:14:50.281Z,18.40
2022-09-26T13:20:41.608Z,16.92
2022-09-26T13:26:12.284Z,17.39
2022-09-26T13:31:40.516Z,17.09
2022-09-26T13:37:04.678Z,17.08
2022-09-26T13:42:40.806Z,17.49
2022-09-26T13:48:18.917Z,17.65
2022-09-26T13:53:52.068Z,17.55
2022-09-26T13:59:41.131Z,17.21
2022-09-26T14:05:10.309Z,18.35
2022-09-26T14:10:43.967Z,18.59
2022-09-26T14:16:10.435Z,18.88
2022-09-26T14:22:12.623Z,17.92
2022-09-26T14:27:46.627Z,16.97
2022-09-26T14:33:15.596Z,16.50
2022-09-26T14:38:39.723Z,16.07
2022-09-26T14:49:44.813Z,15.64
2022-09-26T14:55:09.732Z,15.33
2022-09-26T15:00:53.404Z,15.10
2022-09-26T15:06:18.628Z,14.97
2022-09-26T15:12:04.655Z,14.83
2022-09-26T15:17:32.318Z,14.69
2022-09-26T15:22:56.645Z,14.51
2022-09-26T15:28:18.902Z,14.42
2022-09-26T15:33:41.039Z,14.33
2022-09-26T15:39:04.089Z,14.18
2022-09-26T15:44:35.327Z,13.79
2022-09-26T15:50:02.483Z,13.41
2022-09-26T15:55:34.866Z,13.17
2022-09-26T16:01:00.944Z,13.10
2022-09-26T16:06:36.311Z,13.23
2022-09-26T16:12:05.704Z,12.99
2022-09-26T16:17:36.543Z,12.84
2022-09-26T16:23:20.611Z,12.75
2022-09-26T16:29:00.318Z,12.40
2022-09-26T16:34:35.429Z,12.28
2022-09-26T16:40:02.937Z,12.43
2022-09-26T16:45:26.687Z,12.38
2022-09-26T16:50:50.203Z,12.36
2022-09-26T16:56:13.985Z,12.36
2022-09-26T17:01:55.877Z,12.36
2022-09-26T17:07:25.817Z,12.32
2022-09-26T17:12:50.025Z,12.27
2022-09-26T17:18:14.052Z,12.25
2022-09-26T17:23:41.816Z,12.17
2022-09-26T17:29:03.494Z,11.97
2022-09-26T17:34:28.597Z,11.93
2022-09-26T17:39:50.851Z,11.94
2022-09-26T17:45:13.791Z,11.99
2022-09-26T17:50:38.865Z,11.91
2022-09-26T17:56:02.697Z,11.92
2022-09-26T18:01:33.750Z,11.91
2022-09-26T18:06:57.458Z,11.90
2022-09-26T18:12:24.477Z,11.82
2022-09-26T18:17:47.282Z,11.81
2022-09-26T18:23:11.056Z,11.79
2022-09-26T18:28:35.737Z,11.75
2022-09-26T18:33:58.363Z,11.75
2022-09-26T18:39:21.290Z,11.65
2022-09-26T18:44:44.361Z,11.71
2022-09-26T18:50:07.369Z,11.61
2022-09-26T18:55:51.379Z,11.59
2022-09-26T19:01:21.719Z,11.73
2022-09-26T19:06:51.506Z,11.63
2022-09-26T19:12:15.797Z,11.57
2022-09-26T19:17:37.927Z,11.56
2022-09-26T19:23:00.729Z,11.49
2022-09-26T19:28:26.691Z,11.40
2022-09-26T19:33:51.137Z,11.20
2022-09-26T19:39:18.224Z,10.99
2022-09-26T19:44:40.526Z,11.03
2022-09-26T19:50:05.505Z,11.01
2022-09-26T19:55:36.722Z,10.74
2022-09-26T20:01:12.338Z,10.49
2022-09-26T20:06:39.783Z,10.31
2022-09-26T20:12:02.012Z,10.06
2022-09-26T20:17:42.682Z,9.95
2022-09-26T20:23:05.863Z,9.75
2022-09-26T20:28:29.682Z,9.55
2022-09-26T20:33:51.806Z,9.40
2022-09-26T20:39:18.907Z,9.28
2022-09-26T20:44:43.430Z,9.11
2022-09-26T20:50:09.348Z,8.86
2022-09-26T20:55:35.924Z,8.74
2022-09-26T21:01:01.055Z,8.64
2022-09-26T21:06:31.436Z,8.51
2022-09-26T21:11:53.690Z,8.35
2022-09-26T21:17:17.598Z,8.18
2022-09-26T21:22:41.852Z,8.06
2022-09-26T21:28:08.317Z,7.96
2022-09-26T21:33:32.620Z,7.82
2022-09-26T21:38:57.028Z,7.77
2022-09-26T21:44:32.612Z,7.61
2022-09-26T21:49:55.365Z,7.60
2022-09-26T21:55:24.607Z,7.66
2022-09-26T22:00:47.120Z,7.52
2022-09-26T22:06:10.673Z,7.35
2022-09-26T22:11:32.929Z,7.45
2022-09-26T22:16:55.098Z,7.36
2022-09-26T22:22:17.750Z,7.31
2022-09-26T22:27:40.203Z,7.33
2022-09-26T22:33:02.338Z,7.27
2022-09-26T22:38:24.697Z,7.30
2022-09-26T22:43:48.944Z,7.32
2022-09-26T22:49:11.110Z,7.17
2022-09-26T22:54:33.604Z,7.12
2022-09-26T22:59:55.804Z,7.03
2022-09-26T23:05:18.760Z,6.98
2022-09-26T23:10:41.413Z,6.92
2022-09-26T23:16:06.146Z,6.79
2022-09-26T23:21:32.212Z,6.58
2022-09-26T23:26:54.351Z,6.59
2022-09-26T23:32:16.517Z,6.40
2022-09-26T23:37:38.751Z,6.37
2022-09-26T23:43:01.445Z,6.36
2022-09-26T23:48:23.692Z,6.31
2022-09-26T23:53:46.368Z,6.33
2022-09-26T23:59:09.356Z,6.20
